Thunder radar more information blitzortung!


Radar de pluja more information rain snow radar


Visita la nostra xarxa de llocs de meteo:

Template documentation
and downloads

And another site



No particular awareness of the weather is required.    There are no Weather-warnings

Nearby METAR Reports

   
LEBL - Barcelona Airpor, Spain
Distancia fins a l'estacio: SSE 30 km
Actualitzacio: 17-11-2017 20:00
Clar  
Clar  
   Vent: NW 11.1 km/h
Vent: NW 11.1 km/h
Temperatura: 13°C
Punt de rosada: 7°C
Humitat: 67%
Barometre: 1018 hPa
Visibilitat: More than 10 km
Cloud details: Clar ft
LEBL 171900Z 31006KT 240V350 CAVOK 13/07 Q1018 NOSIG
LELL - Sabadell, Spain
Distancia fins a l'estacio: WNW 14 km
Actualitzacio: 17-11-2017 20:00
Clar  
Clar  
   Vent: NW 1.9 km/h
Vent: NW 1.9 km/h
Temperatura: 11°C
Punt de rosada: 4°C
Humitat: 62%
Barometre: 1019 hPa
Nuvols: Clear
Visibilitat: More than 10 km
Cloud details: Clar ft
LELL 171900Z AUTO 31001KT 9999 NCD 11/04 Q1019
LEGE - Girona/Costa Bra, Spain
Distancia fins a l'estacio: NE 65 km
Actualitzacio: 17-11-2017 20:00
Clar  
Clar  
   Vent: calma
Vent: calma
Temperatura: 9°C
Punt de rosada: 7°C
Humitat: 87%
Barometre: 1019 hPa
Visibilitat: More than 10 km
Cloud details: Clar ft
LEGE 171900Z 00000KT CAVOK 09/07 Q1019
LERS - Reus (civ/Mil), Spain
Distancia fins a l'estacio: WSW 96 km
Actualitzacio: 17-11-2017 20:00
Clar  
Clar  
   Vent: NNE 9.3 km/h
Vent: NNE 9.3 km/h
Temperatura: 11°C
Punt de rosada: 4°C
Humitat: 62%
Barometre: 1018 hPa
Visibilitat: More than 10 km
Cloud details: Clar ft
LERS 171900Z 03005KT CAVOK 11/04 Q1018
LESU - Pirineus/La Seu, Spain
Distancia fins a l'estacio: NW 121 km
Actualitzacio: 17-11-2017 17:00
NO actual
Clar  
Clar  
   Vent: WSW 11.1 km/h
Vent: WSW 11.1 km/h
Temperatura: 15°C
Punt de rosada: -2°C
Humitat: 31%
Barometre: 1019 hPa
Visibilitat: More than 10 km
Cloud details: Clar ft
LESU 171600Z 24006KT CAVOK 15/M02 Q1019
LEDA - Lleida/Alguaire, Spain
Distancia fins a l'estacio: WNW 146 km
Actualitzacio: 17-11-2017 14:30
NO actual
Clar  
Clar  
   Vent: varia 3.7 km/h
Vent: varia 3.7 km/h
Temperatura: 13°C
Punt de rosada: 1°C
Humitat: 44%
Barometre: 1020 hPa
Visibilitat: More than 10 km
Cloud details: Clar ft
LEDA 171330Z VRB02KT CAVOK 13/01 Q1020
LFMP - Perpignan/Rivesa, France
Distancia fins a l'estacio: NNE 150 km
Actualitzacio: 17-11-2017 20:00
Clar  
Clar  
   Vent: NW 27.8 km/h
Vent: NW 27.8 km/h
Temperatura: 16°C
Punt de rosada: 1°C
Humitat: 36%
Barometre: 1019 hPa
Visibilitat: More than 10 km
Cloud details: Clar ft
LFMP 171900Z AUTO 32015KT CAVOK 16/01 Q1019 TEMPO 31020G30KT
LEPA - Palma De Mallorca, Spain
Distancia fins a l'estacio: S 216 km
Actualitzacio: 17-11-2017 20:00
Clar  
Clar  
   Vent: varia 1.9 km/h
Vent: varia 1.9 km/h
Temperatura: 11°C
Punt de rosada: 9°C
Humitat: 88%
Barometre: 1019 hPa
Visibilitat: More than 10 km
Cloud details: Clar ft
LEPA 171900Z VRB01KT CAVOK 11/09 Q1019 NOSIG
 

Guio original per  Saratoga-weather.org Adaptat per a la plantilla per  Weerstation Leuven

Trobareu la nostra informacio del temps tambe a:

Weather Underground

AWEKAS